sensor_id;sensor_type;location;lat;lon;timestamp;temperature;humidity
40059;SHT31;25763;49.972;8.568;2022-12-18T00:00:44;-6.99;85.84
40059;SHT31;25763;49.972;8.568;2022-12-18T00:03:12;-6.98;85.76
40059;SHT31;25763;49.972;8.568;2022-12-18T00:05:46;-6.85;85.75
40059;SHT31;25763;49.972;8.568;2022-12-18T00:08:11;-6.78;85.75
40059;SHT31;25763;49.972;8.568;2022-12-18T00:10:36;-7.00;85.40
40059;SHT31;25763;49.972;8.568;2022-12-18T00:13:02;-7.06;85.40
40059;SHT31;25763;49.972;8.568;2022-12-18T00:15:27;-7.12;85.39
40059;SHT31;25763;49.972;8.568;2022-12-18T00:17:52;-7.17;85.51
40059;SHT31;25763;49.972;8.568;2022-12-18T00:20:17;-7.15;85.54
40059;SHT31;25763;49.972;8.568;2022-12-18T00:22:51;-7.22;85.54
40059;SHT31;25763;49.972;8.568;2022-12-18T00:25:16;-7.41;85.52
40059;SHT31;25763;49.972;8.568;2022-12-18T00:27:42;-7.47;85.76
40059;SHT31;25763;49.972;8.568;2022-12-18T00:30:07;-7.55;85.78
40059;SHT31;25763;49.972;8.568;2022-12-18T00:32:33;-7.48;85.78
40059;SHT31;25763;49.972;8.568;2022-12-18T00:34:58;-7.41;85.64
40059;SHT31;25763;49.972;8.568;2022-12-18T00:37:23;-7.55;85.58
40059;SHT31;25763;49.972;8.568;2022-12-18T00:39:49;-7.61;85.56
40059;SHT31;25763;49.972;8.568;2022-12-18T00:42:14;-7.68;85.64
40059;SHT31;25763;49.972;8.568;2022-12-18T00:44:58;-7.70;85.71
40059;SHT31;25763;49.972;8.568;2022-12-18T00:47:24;-7.79;85.71
40059;SHT31;25763;49.972;8.568;2022-12-18T00:49:49;-7.68;85.79
40059;SHT31;25763;49.972;8.568;2022-12-18T00:52:14;-7.56;85.74
40059;SHT31;25763;49.972;8.568;2022-12-18T00:54:40;-7.45;85.66
40059;SHT31;25763;49.972;8.568;2022-12-18T00:57:05;-7.42;85.50
40059;SHT31;25763;49.972;8.568;2022-12-18T00:59:30;-7.48;85.31
40059;SHT31;25763;49.972;8.568;2022-12-18T01:01:56;-7.50;85.32
40059;SHT31;25763;49.972;8.568;2022-12-18T01:04:21;-7.45;85.26
40059;SHT31;25763;49.972;8.568;2022-12-18T01:06:46;-7.41;85.14
40059;SHT31;25763;49.972;8.568;2022-12-18T01:09:12;-7.35;85.03
40059;SHT31;25763;49.972;8.568;2022-12-18T01:11:37;-7.54;84.79
40059;SHT31;25763;49.972;8.568;2022-12-18T01:14:03;-7.65;85.01
40059;SHT31;25763;49.972;8.568;2022-12-18T01:16:28;-7.76;85.34
40059;SHT31;25763;49.972;8.568;2022-12-18T01:18:54;-7.79;85.50
40059;SHT31;25763;49.972;8.568;2022-12-18T01:21:21;-7.85;85.63
40059;SHT31;25763;49.972;8.568;2022-12-18T01:23:51;-7.75;85.67
40059;SHT31;25763;49.972;8.568;2022-12-18T01:26:17;-7.75;85.57
40059;SHT31;25763;49.972;8.568;2022-12-18T01:28:43;-7.73;85.56
40059;SHT31;25763;49.972;8.568;2022-12-18T01:33:38;-8.01;85.76
40059;SHT31;25763;49.972;8.568;2022-12-18T01:36:03;-7.92;85.85
40059;SHT31;25763;49.972;8.568;2022-12-18T01:38:29;-7.93;85.79
40059;SHT31;25763;49.972;8.568;2022-12-18T01:40:58;-7.92;85.81
40059;SHT31;25763;49.972;8.568;2022-12-18T01:43:51;-7.90;85.84
40059;SHT31;25763;49.972;8.568;2022-12-18T01:46:19;-7.99;85.88
40059;SHT31;25763;49.972;8.568;2022-12-18T01:48:48;-8.04;86.03
40059;SHT31;25763;49.972;8.568;2022-12-18T01:51:15;-8.09;86.18
40059;SHT31;25763;49.972;8.568;2022-12-18T01:53:41;-8.10;86.32
40059;SHT31;25763;49.972;8.568;2022-12-18T01:56:12;-8.07;86.36
40059;SHT31;25763;49.972;8.568;2022-12-18T01:58:54;-8.03;86.35
40059;SHT31;25763;49.972;8.568;2022-12-18T02:01:23;-8.03;86.36
40059;SHT31;25763;49.972;8.568;2022-12-18T02:03:48;-8.04;86.31
40059;SHT31;25763;49.972;8.568;2022-12-18T02:06:33;-8.06;86.26
40059;SHT31;25763;49.972;8.568;2022-12-18T02:09:09;-8.10;86.24
40059;SHT31;25763;49.972;8.568;2022-12-18T02:11:44;-8.14;86.29
40059;SHT31;25763;49.972;8.568;2022-12-18T02:14:23;-8.18;86.20
40059;SHT31;25763;49.972;8.568;2022-12-18T02:17:04;-8.22;86.22
40059;SHT31;25763;49.972;8.568;2022-12-18T02:20:27;-8.27;86.19
40059;SHT31;25763;49.972;8.568;2022-12-18T02:22:46;-8.34;86.27
40059;SHT31;25763;49.972;8.568;2022-12-18T02:28:06;-8.36;86.32
40059;SHT31;25763;49.972;8.568;2022-12-18T02:30:34;-8.29;86.24
40059;SHT31;25763;49.972;8.568;2022-12-18T02:33:01;-8.38;86.28
40059;SHT31;25763;49.972;8.568;2022-12-18T02:35:29;-8.41;86.37
40059;SHT31;25763;49.972;8.568;2022-12-18T02:37:55;-8.34;86.32
40059;SHT31;25763;49.972;8.568;2022-12-18T02:40:23;-8.39;86.27
40059;SHT31;25763;49.972;8.568;2022-12-18T02:42:49;-8.38;86.29
40059;SHT31;25763;49.972;8.568;2022-12-18T02:45:14;-8.41;86.31
40059;SHT31;25763;49.972;8.568;2022-12-18T02:47:42;-8.36;86.31
40059;SHT31;25763;49.972;8.568;2022-12-18T02:50:34;-8.42;86.22
40059;SHT31;25763;49.972;8.568;2022-12-18T02:53:10;-8.34;86.25
40059;SHT31;25763;49.972;8.568;2022-12-18T03:01:16;-8.25;85.92
40059;SHT31;25763;49.972;8.568;2022-12-18T03:04:01;-8.29;85.83
40059;SHT31;25763;49.972;8.568;2022-12-18T03:06:35;-8.31;85.72
40059;SHT31;25763;49.972;8.568;2022-12-18T03:09:07;-8.39;85.94
40059;SHT31;25763;49.972;8.568;2022-12-18T03:11:38;-8.25;85.99
40059;SHT31;25763;49.972;8.568;2022-12-18T03:14:24;-8.31;85.96
40059;SHT31;25763;49.972;8.568;2022-12-18T03:16:53;-8.31;86.17
40059;SHT31;25763;49.972;8.568;2022-12-18T03:19:22;-8.32;86.30
40059;SHT31;25763;49.972;8.568;2022-12-18T03:21:52;-8.36;86.29
40059;SHT31;25763;49.972;8.568;2022-12-18T03:24:20;-8.39;86.45
40059;SHT31;25763;49.972;8.568;2022-12-18T03:26:51;-8.42;86.41
40059;SHT31;25763;49.972;8.568;2022-12-18T03:29:22;-8.39;86.42
40059;SHT31;25763;49.972;8.568;2022-12-18T03:31:54;-8.48;86.37
40059;SHT31;25763;49.972;8.568;2022-12-18T03:34:27;-8.44;86.46
40059;SHT31;25763;49.972;8.568;2022-12-18T03:36:54;-8.45;86.42
40059;SHT31;25763;49.972;8.568;2022-12-18T03:39:20;-8.41;86.44
40059;SHT31;25763;49.972;8.568;2022-12-18T03:41:59;-8.35;86.35
40059;SHT31;25763;49.972;8.568;2022-12-18T03:47:31;-8.28;86.21
40059;SHT31;25763;49.972;8.568;2022-12-18T03:50:35;-8.18;85.99
40059;SHT31;25763;49.972;8.568;2022-12-18T03:55:41;-8.18;85.75
40059;SHT31;25763;49.972;8.568;2022-12-18T03:58:07;-8.07;85.64
40059;SHT31;25763;49.972;8.568;2022-12-18T04:00:34;-7.94;85.60
40059;SHT31;25763;49.972;8.568;2022-12-18T04:03:01;-7.90;85.35
40059;SHT31;25763;49.972;8.568;2022-12-18T04:05:28;-8.01;85.06
40059;SHT31;25763;49.972;8.568;2022-12-18T04:07:54;-8.20;84.93
40059;SHT31;25763;49.972;8.568;2022-12-18T04:10:21;-8.27;85.17
40059;SHT31;25763;49.972;8.568;2022-12-18T04:12:47;-8.20;85.33
40059;SHT31;25763;49.972;8.568;2022-12-18T04:15:13;-8.18;85.35
40059;SHT31;25763;49.972;8.568;2022-12-18T04:17:46;-8.24;85.41
40059;SHT31;25763;49.972;8.568;2022-12-18T04:20:12;-8.29;85.49
40059;SHT31;25763;49.972;8.568;2022-12-18T04:22:37;-8.36;85.65
40059;SHT31;25763;49.972;8.568;2022-12-18T04:25:03;-8.22;85.68
40059;SHT31;25763;49.972;8.568;2022-12-18T04:27:28;-8.27;85.57
40059;SHT31;25763;49.972;8.568;2022-12-18T04:29:54;-8.25;85.66
40059;SHT31;25763;49.972;8.568;2022-12-18T04:32:19;-8.24;85.63
40059;SHT31;25763;49.972;8.568;2022-12-18T04:34:45;-8.18;85.65
40059;SHT31;25763;49.972;8.568;2022-12-18T04:37:10;-8.09;85.52
40059;SHT31;25763;49.972;8.568;2022-12-18T04:39:36;-7.97;85.56
40059;SHT31;25763;49.972;8.568;2022-12-18T04:42:01;-7.99;85.39
40059;SHT31;25763;49.972;8.568;2022-12-18T04:44:27;-7.92;85.40
40059;SHT31;25763;49.972;8.568;2022-12-18T04:46:52;-7.85;85.24
40059;SHT31;25763;49.972;8.568;2022-12-18T04:49:18;-8.03;85.37
40059;SHT31;25763;49.972;8.568;2022-12-18T04:51:43;-7.99;85.59
40059;SHT31;25763;49.972;8.568;2022-12-18T04:54:08;-7.94;85.69
40059;SHT31;25763;49.972;8.568;2022-12-18T04:56:34;-8.00;85.78
40059;SHT31;25763;49.972;8.568;2022-12-18T04:58:59;-8.00;85.90
40059;SHT31;25763;49.972;8.568;2022-12-18T05:01:24;-8.00;86.08
40059;SHT31;25763;49.972;8.568;2022-12-18T05:03:51;-7.97;86.11
40059;SHT31;25763;49.972;8.568;2022-12-18T05:06:16;-7.97;86.27
40059;SHT31;25763;49.972;8.568;2022-12-18T05:08:42;-7.94;86.46
40059;SHT31;25763;49.972;8.568;2022-12-18T05:11:10;-7.93;86.46
40059;SHT31;25763;49.972;8.568;2022-12-18T05:13:36;-7.94;86.52
40059;SHT31;25763;49.972;8.568;2022-12-18T05:16:03;-7.93;86.50
40059;SHT31;25763;49.972;8.568;2022-12-18T05:18:29;-7.96;86.61
40059;SHT31;25763;49.972;8.568;2022-12-18T05:20:55;-7.94;86.63
40059;SHT31;25763;49.972;8.568;2022-12-18T05:23:22;-7.93;86.66
40059;SHT31;25763;49.972;8.568;2022-12-18T05:25:53;-7.92;86.75
40059;SHT31;25763;49.972;8.568;2022-12-18T05:28:19;-7.85;86.63
40059;SHT31;25763;49.972;8.568;2022-12-18T05:30:51;-7.85;86.64
40059;SHT31;25763;49.972;8.568;2022-12-18T05:33:17;-7.90;86.67
40059;SHT31;25763;49.972;8.568;2022-12-18T05:35:43;-7.93;86.65
40059;SHT31;25763;49.972;8.568;2022-12-18T05:38:09;-7.92;86.67
40059;SHT31;25763;49.972;8.568;2022-12-18T05:40:34;-7.96;86.73
40059;SHT31;25763;49.972;8.568;2022-12-18T05:42:59;-7.99;86.74
40059;SHT31;25763;49.972;8.568;2022-12-18T05:45:25;-7.96;86.73
40059;SHT31;25763;49.972;8.568;2022-12-18T05:47:50;-7.96;86.70
40059;SHT31;25763;49.972;8.568;2022-12-18T05:50:15;-7.96;86.66
40059;SHT31;25763;49.972;8.568;2022-12-18T05:52:41;-7.92;86.64
40059;SHT31;25763;49.972;8.568;2022-12-18T05:55:06;-7.94;86.65
40059;SHT31;25763;49.972;8.568;2022-12-18T05:57:33;-7.97;86.57
40059;SHT31;25763;49.972;8.568;2022-12-18T05:59:58;-7.93;86.62
40059;SHT31;25763;49.972;8.568;2022-12-18T06:02:23;-7.96;86.68
40059;SHT31;25763;49.972;8.568;2022-12-18T06:04:49;-7.94;86.72
40059;SHT31;25763;49.972;8.568;2022-12-18T06:07:14;-7.96;86.75
40059;SHT31;25763;49.972;8.568;2022-12-18T06:09:39;-7.92;86.69
40059;SHT31;25763;49.972;8.568;2022-12-18T06:12:05;-7.96;86.70
40059;SHT31;25763;49.972;8.568;2022-12-18T06:14:30;-7.93;86.70
40059;SHT31;25763;49.972;8.568;2022-12-18T06:16:56;-7.93;86.73
40059;SHT31;25763;49.972;8.568;2022-12-18T06:19:21;-7.90;86.68
40059;SHT31;25763;49.972;8.568;2022-12-18T06:21:47;-7.86;86.76
40059;SHT31;25763;49.972;8.568;2022-12-18T06:24:12;-7.85;86.76
40059;SHT31;25763;49.972;8.568;2022-12-18T06:26:38;-7.81;86.73
40059;SHT31;25763;49.972;8.568;2022-12-18T06:29:04;-7.82;86.70
40059;SHT31;25763;49.972;8.568;2022-12-18T06:31:29;-7.82;86.68
40059;SHT31;25763;49.972;8.568;2022-12-18T06:33:54;-7.82;86.60
40059;SHT31;25763;49.972;8.568;2022-12-18T06:36:20;-7.78;86.63
40059;SHT31;25763;49.972;8.568;2022-12-18T06:38:46;-7.78;86.66
40059;SHT31;25763;49.972;8.568;2022-12-18T06:41:14;-7.79;86.75
40059;SHT31;25763;49.972;8.568;2022-12-18T06:43:41;-7.79;86.68
40059;SHT31;25763;49.972;8.568;2022-12-18T06:46:06;-7.75;86.64
40059;SHT31;25763;49.972;8.568;2022-12-18T06:48:32;-7.70;86.61
40059;SHT31;25763;49.972;8.568;2022-12-18T06:50:58;-7.69;86.63
40059;SHT31;25763;49.972;8.568;2022-12-18T06:53:23;-7.68;86.54
40059;SHT31;25763;49.972;8.568;2022-12-18T06:55:48;-7.68;86.48
40059;SHT31;25763;49.972;8.568;2022-12-18T06:58:14;-7.70;86.48
40059;SHT31;25763;49.972;8.568;2022-12-18T07:00:39;-7.72;86.54
40059;SHT31;25763;49.972;8.568;2022-12-18T07:03:05;-7.70;86.52
40059;SHT31;25763;49.972;8.568;2022-12-18T07:05:30;-7.75;86.50
40059;SHT31;25763;49.972;8.568;2022-12-18T07:07:55;-7.72;86.56
40059;SHT31;25763;49.972;8.568;2022-12-18T07:10:21;-7.76;86.54
40059;SHT31;25763;49.972;8.568;2022-12-18T07:12:46;-7.73;86.54
40059;SHT31;25763;49.972;8.568;2022-12-18T07:15:12;-7.68;86.48
40059;SHT31;25763;49.972;8.568;2022-12-18T07:17:37;-7.66;86.32
40059;SHT31;25763;49.972;8.568;2022-12-18T07:20:03;-7.62;86.16
40059;SHT31;25763;49.972;8.568;2022-12-18T07:22:28;-7.58;86.02
40059;SHT31;25763;49.972;8.568;2022-12-18T07:24:54;-7.63;85.94
40059;SHT31;25763;49.972;8.568;2022-12-18T07:27:20;-7.62;85.94
40059;SHT31;25763;49.972;8.568;2022-12-18T07:29:46;-7.55;85.88
40059;SHT31;25763;49.972;8.568;2022-12-18T07:32:11;-7.61;85.83
40059;SHT31;25763;49.972;8.568;2022-12-18T07:34:37;-7.54;85.74
40059;SHT31;25763;49.972;8.568;2022-12-18T07:37:02;-7.42;85.59
40059;SHT31;25763;49.972;8.568;2022-12-18T07:39:27;-7.48;85.34
40059;SHT31;25763;49.972;8.568;2022-12-18T07:41:53;-7.41;85.20
40059;SHT31;25763;49.972;8.568;2022-12-18T07:44:37;-7.38;85.04
40059;SHT31;25763;49.972;8.568;2022-12-18T07:47:02;-7.44;84.87
40059;SHT31;25763;49.972;8.568;2022-12-18T07:49:28;-7.48;84.79
40059;SHT31;25763;49.972;8.568;2022-12-18T07:51:57;-7.40;84.59
40059;SHT31;25763;49.972;8.568;2022-12-18T07:54:23;-7.44;84.40
40059;SHT31;25763;49.972;8.568;2022-12-18T07:56:49;-7.45;84.38
40059;SHT31;25763;49.972;8.568;2022-12-18T07:59:14;-7.45;84.30
40059;SHT31;25763;49.972;8.568;2022-12-18T08:01:40;-7.47;84.37
40059;SHT31;25763;49.972;8.568;2022-12-18T08:04:05;-7.31;84.30
40059;SHT31;25763;49.972;8.568;2022-12-18T08:06:30;-7.07;84.25
40059;SHT31;25763;49.972;8.568;2022-12-18T08:08:56;-6.99;84.07
40059;SHT31;25763;49.972;8.568;2022-12-18T08:11:24;-6.85;83.90
40059;SHT31;25763;49.972;8.568;2022-12-18T08:13:49;-6.77;83.75
40059;SHT31;25763;49.972;8.568;2022-12-18T08:16:15;-6.64;83.70
40059;SHT31;25763;49.972;8.568;2022-12-18T08:18:40;-6.53;83.68
40059;SHT31;25763;49.972;8.568;2022-12-18T08:23:38;-6.52;82.92
40059;SHT31;25763;49.972;8.568;2022-12-18T08:26:03;-6.56;82.42
40059;SHT31;25763;49.972;8.568;2022-12-18T08:28:29;-6.56;81.78
40059;SHT31;25763;49.972;8.568;2022-12-18T08:30:54;-6.46;82.01
40059;SHT31;25763;49.972;8.568;2022-12-18T08:33:19;-6.49;81.79
40059;SHT31;25763;49.972;8.568;2022-12-18T08:35:45;-6.40;81.60
40059;SHT31;25763;49.972;8.568;2022-12-18T08:38:10;-6.40;81.34
40059;SHT31;25763;49.972;8.568;2022-12-18T08:40:35;-6.40;81.00
40059;SHT31;25763;49.972;8.568;2022-12-18T08:43:01;-6.40;80.76
40059;SHT31;25763;49.972;8.568;2022-12-18T08:45:45;-6.28;81.01
40059;SHT31;25763;49.972;8.568;2022-12-18T08:48:10;-6.21;81.01
40059;SHT31;25763;49.972;8.568;2022-12-18T08:50:35;-6.12;80.90
40059;SHT31;25763;49.972;8.568;2022-12-18T08:53:01;-6.06;80.79
40059;SHT31;25763;49.972;8.568;2022-12-18T08:55:26;-5.99;80.55
40059;SHT31;25763;49.972;8.568;2022-12-18T08:57:52;-6.04;80.27
40059;SHT31;25763;49.972;8.568;2022-12-18T09:00:17;-5.95;80.05
40059;SHT31;25763;49.972;8.568;2022-12-18T09:02:43;-6.01;79.50
40059;SHT31;25763;49.972;8.568;2022-12-18T09:05:08;-5.97;79.47
40059;SHT31;25763;49.972;8.568;2022-12-18T09:07:34;-5.86;79.59
40059;SHT31;25763;49.972;8.568;2022-12-18T09:09:59;-5.77;79.62
40059;SHT31;25763;49.972;8.568;2022-12-18T09:12:25;-5.60;79.79
40059;SHT31;25763;49.972;8.568;2022-12-18T09:14:50;-5.52;79.62
40059;SHT31;25763;49.972;8.568;2022-12-18T09:17:16;-5.39;79.57
40059;SHT31;25763;49.972;8.568;2022-12-18T09:19:41;-5.51;79.05
40059;SHT31;25763;49.972;8.568;2022-12-18T09:22:06;-5.27;78.93
40059;SHT31;25763;49.972;8.568;2022-12-18T09:24:32;-5.14;78.92
40059;SHT31;25763;49.972;8.568;2022-12-18T09:26:57;-5.04;78.91
40059;SHT31;25763;49.972;8.568;2022-12-18T09:29:22;-5.01;78.69
40059;SHT31;25763;49.972;8.568;2022-12-18T09:31:48;-4.79;78.61
40059;SHT31;25763;49.972;8.568;2022-12-18T09:34:14;-4.66;78.37
40059;SHT31;25763;49.972;8.568;2022-12-18T09:36:40;-4.61;77.58
40059;SHT31;25763;49.972;8.568;2022-12-18T09:39:05;-4.62;77.25
40059;SHT31;25763;49.972;8.568;2022-12-18T09:41:47;-4.58;76.96
40059;SHT31;25763;49.972;8.568;2022-12-18T09:44:22;-4.73;76.53
40059;SHT31;25763;49.972;8.568;2022-12-18T09:46:53;-4.82;77.30
40059;SHT31;25763;49.972;8.568;2022-12-18T09:49:23;-4.64;77.69
40059;SHT31;25763;49.972;8.568;2022-12-18T09:51:59;-4.76;77.98
40059;SHT31;25763;49.972;8.568;2022-12-18T09:54:31;-4.54;78.18
40059;SHT31;25763;49.972;8.568;2022-12-18T09:56:58;-4.94;78.97
40059;SHT31;25763;49.972;8.568;2022-12-18T09:59:24;-4.62;79.46
40059;SHT31;25763;49.972;8.568;2022-12-18T10:01:50;-4.51;78.90
40059;SHT31;25763;49.972;8.568;2022-12-18T10:04:16;-4.65;79.08
40059;SHT31;25763;49.972;8.568;2022-12-18T10:07:03;-4.62;79.81
40059;SHT31;25763;49.972;8.568;2022-12-18T10:10:04;-4.66;79.58
40059;SHT31;25763;49.972;8.568;2022-12-18T10:12:48;-4.64;80.09
40059;SHT31;25763;49.972;8.568;2022-12-18T10:15:56;-4.47;80.17
40059;SHT31;25763;49.972;8.568;2022-12-18T10:18:29;-4.40;80.05
40059;SHT31;25763;49.972;8.568;2022-12-18T10:21:09;-4.23;80.07
40059;SHT31;25763;49.972;8.568;2022-12-18T10:24:03;-4.16;80.31
40059;SHT31;25763;49.972;8.568;2022-12-18T10:26:33;-3.98;80.23
40059;SHT31;25763;49.972;8.568;2022-12-18T10:28:59;-3.88;80.38
40059;SHT31;25763;49.972;8.568;2022-12-18T10:31:25;-3.91;79.85
40059;SHT31;25763;49.972;8.568;2022-12-18T10:33:51;-3.99;80.01
40059;SHT31;25763;49.972;8.568;2022-12-18T10:36:18;-3.92;80.67
40059;SHT31;25763;49.972;8.568;2022-12-18T10:38:44;-3.80;80.45
40059;SHT31;25763;49.972;8.568;2022-12-18T10:43:44;-4.05;79.77
40059;SHT31;25763;49.972;8.568;2022-12-18T10:51:29;-4.07;79.56
40059;SHT31;25763;49.972;8.568;2022-12-18T10:56:31;-3.98;79.83
40059;SHT31;25763;49.972;8.568;2022-12-18T10:59:04;-4.07;79.73
40059;SHT31;25763;49.972;8.568;2022-12-18T11:01:49;-3.98;79.74
40059;SHT31;25763;49.972;8.568;2022-12-18T11:04:26;-4.05;79.47
40059;SHT31;25763;49.972;8.568;2022-12-18T11:07:06;-3.99;79.20
40059;SHT31;25763;49.972;8.568;2022-12-18T11:09:39;-3.85;79.07
40059;SHT31;25763;49.972;8.568;2022-12-18T11:12:16;-3.85;78.88
40059;SHT31;25763;49.972;8.568;2022-12-18T11:14:46;-3.92;78.73
40059;SHT31;25763;49.972;8.568;2022-12-18T11:17:31;-3.98;78.84
40059;SHT31;25763;49.972;8.568;2022-12-18T11:20:07;-3.99;78.41
40059;SHT31;25763;49.972;8.568;2022-12-18T11:22:54;-4.05;78.70
40059;SHT31;25763;49.972;8.568;2022-12-18T11:25:20;-3.94;78.79
40059;SHT31;25763;49.972;8.568;2022-12-18T11:27:54;-3.85;78.89
40059;SHT31;25763;49.972;8.568;2022-12-18T11:32:55;-3.61;78.65
40059;SHT31;25763;49.972;8.568;2022-12-18T11:38:11;-3.75;78.97
40059;SHT31;25763;49.972;8.568;2022-12-18T11:40:40;-3.88;78.86
40059;SHT31;25763;49.972;8.568;2022-12-18T11:43:13;-3.78;79.09
40059;SHT31;25763;49.972;8.568;2022-12-18T11:45:45;-3.82;79.17
40059;SHT31;25763;49.972;8.568;2022-12-18T11:48:20;-3.78;79.04
40059;SHT31;25763;49.972;8.568;2022-12-18T11:50:49;-3.64;79.11
40059;SHT31;25763;49.972;8.568;2022-12-18T11:53:15;-3.67;78.92
40059;SHT31;25763;49.972;8.568;2022-12-18T11:58:30;-3.33;78.81
40059;SHT31;25763;49.972;8.568;2022-12-18T12:06:33;-3.05;78.25
40059;SHT31;25763;49.972;8.568;2022-12-18T12:12:10;-3.39;78.23
40059;SHT31;25763;49.972;8.568;2022-12-18T12:15:06;-3.36;78.91
40059;SHT31;25763;49.972;8.568;2022-12-18T12:17:45;-3.21;78.42
40059;SHT31;25763;49.972;8.568;2022-12-18T12:23:29;-3.12;78.31
40059;SHT31;25763;49.972;8.568;2022-12-18T12:26:04;-3.13;78.28
40059;SHT31;25763;49.972;8.568;2022-12-18T12:31:25;-3.23;78.41
40059;SHT31;25763;49.972;8.568;2022-12-18T12:34:17;-3.18;78.80
40059;SHT31;25763;49.972;8.568;2022-12-18T12:37:07;-2.97;78.61
40059;SHT31;25763;49.972;8.568;2022-12-18T12:39:39;-3.13;78.19
40059;SHT31;25763;49.972;8.568;2022-12-18T12:45:20;-3.15;78.96
40059;SHT31;25763;49.972;8.568;2022-12-18T12:47:48;-3.11;79.08
40059;SHT31;25763;49.972;8.568;2022-12-18T12:50:17;-3.16;78.93
40059;SHT31;25763;49.972;8.568;2022-12-18T12:52:47;-3.19;78.84
40059;SHT31;25763;49.972;8.568;2022-12-18T12:55:27;-3.12;78.96
40059;SHT31;25763;49.972;8.568;2022-12-18T12:58:15;-3.25;79.50
40059;SHT31;25763;49.972;8.568;2022-12-18T13:04:03;-2.93;79.19
40059;SHT31;25763;49.972;8.568;2022-12-18T13:06:45;-3.02;79.06
40059;SHT31;25763;49.972;8.568;2022-12-18T13:09:12;-2.93;79.35
40059;SHT31;25763;49.972;8.568;2022-12-18T13:14:32;-3.04;79.19
40059;SHT31;25763;49.972;8.568;2022-12-18T13:19:42;-2.95;79.28
40059;SHT31;25763;49.972;8.568;2022-12-18T13:22:42;-3.04;79.39
40059;SHT31;25763;49.972;8.568;2022-12-18T13:25:28;-3.02;79.98
40059;SHT31;25763;49.972;8.568;2022-12-18T13:28:11;-3.02;80.14
40059;SHT31;25763;49.972;8.568;2022-12-18T13:40:59;-3.02;79.89
40059;SHT31;25763;49.972;8.568;2022-12-18T13:43:43;-3.04;80.11
40059;SHT31;25763;49.972;8.568;2022-12-18T13:46:41;-3.12;80.35
40059;SHT31;25763;49.972;8.568;2022-12-18T13:51:57;-3.01;80.20
40059;SHT31;25763;49.972;8.568;2022-12-18T13:54:33;-3.09;80.45
40059;SHT31;25763;49.972;8.568;2022-12-18T13:57:00;-3.12;80.79
40059;SHT31;25763;49.972;8.568;2022-12-18T13:59:36;-3.12;80.88
40059;SHT31;25763;49.972;8.568;2022-12-18T14:02:17;-3.12;80.98
40059;SHT31;25763;49.972;8.568;2022-12-18T14:04:45;-3.07;81.08
40059;SHT31;25763;49.972;8.568;2022-12-18T14:07:14;-3.01;81.04
40059;SHT31;25763;49.972;8.568;2022-12-18T14:09:49;-3.07;80.81
40059;SHT31;25763;49.972;8.568;2022-12-18T14:12:20;-3.07;80.85
40059;SHT31;25763;49.972;8.568;2022-12-18T14:15:06;-3.15;80.97
40059;SHT31;25763;49.972;8.568;2022-12-18T14:17:36;-3.12;81.08
40059;SHT31;25763;49.972;8.568;2022-12-18T14:20:01;-3.08;81.10
40059;SHT31;25763;49.972;8.568;2022-12-18T14:22:26;-3.08;81.22
40059;SHT31;25763;49.972;8.568;2022-12-18T14:27:42;-3.07;81.28
40059;SHT31;25763;49.972;8.568;2022-12-18T14:33:09;-3.12;81.48
40059;SHT31;25763;49.972;8.568;2022-12-18T14:38:10;-3.07;81.28
40059;SHT31;25763;49.972;8.568;2022-12-18T14:40:36;-3.01;81.26
40059;SHT31;25763;49.972;8.568;2022-12-18T14:43:02;-3.04;81.26
40059;SHT31;25763;49.972;8.568;2022-12-18T14:48:07;-3.04;81.43
40059;SHT31;25763;49.972;8.568;2022-12-18T14:50:33;-3.08;81.56
40059;SHT31;25763;49.972;8.568;2022-12-18T14:52:59;-3.12;81.65
40059;SHT31;25763;49.972;8.568;2022-12-18T14:55:24;-3.12;81.67
40059;SHT31;25763;49.972;8.568;2022-12-18T14:57:54;-3.15;81.91
40059;SHT31;25763;49.972;8.568;2022-12-18T15:00:23;-3.16;82.00
40059;SHT31;25763;49.972;8.568;2022-12-18T15:02:54;-3.18;82.25
40059;SHT31;25763;49.972;8.568;2022-12-18T15:05:31;-3.22;82.40
40059;SHT31;25763;49.972;8.568;2022-12-18T15:07:58;-3.25;82.46
40059;SHT31;25763;49.972;8.568;2022-12-18T15:10:30;-3.28;82.46
40059;SHT31;25763;49.972;8.568;2022-12-18T15:23:16;-3.28;82.82
40059;SHT31;25763;49.972;8.568;2022-12-18T15:25:43;-3.26;82.79
40059;SHT31;25763;49.972;8.568;2022-12-18T15:28:36;-3.25;82.85
40059;SHT31;25763;49.972;8.568;2022-12-18T15:31:28;-3.30;82.97
40059;SHT31;25763;49.972;8.568;2022-12-18T15:36:19;-3.29;83.06
40059;SHT31;25763;49.972;8.568;2022-12-18T15:38:48;-3.30;83.16
40059;SHT31;25763;49.972;8.568;2022-12-18T15:41:18;-3.29;83.15
40059;SHT31;25763;49.972;8.568;2022-12-18T15:43:46;-3.35;83.17
40059;SHT31;25763;49.972;8.568;2022-12-18T15:46:22;-3.35;83.30
40059;SHT31;25763;49.972;8.568;2022-12-18T15:48:50;-3.36;83.48
40059;SHT31;25763;49.972;8.568;2022-12-18T15:53:48;-3.35;83.50
40059;SHT31;25763;49.972;8.568;2022-12-18T15:56:15;-3.36;83.59
40059;SHT31;25763;49.972;8.568;2022-12-18T15:59:00;-3.37;83.62
40059;SHT31;25763;49.972;8.568;2022-12-18T16:01:27;-3.36;83.76
40059;SHT31;25763;49.972;8.568;2022-12-18T16:03:53;-3.30;83.63
40059;SHT31;25763;49.972;8.568;2022-12-18T16:06:19;-3.23;83.45
40059;SHT31;25763;49.972;8.568;2022-12-18T16:08:45;-3.23;83.29
40059;SHT31;25763;49.972;8.568;2022-12-18T16:11:31;-3.22;83.31
40059;SHT31;25763;49.972;8.568;2022-12-18T16:14:22;-3.23;83.30
40059;SHT31;25763;49.972;8.568;2022-12-18T16:16:56;-3.26;83.33
40059;SHT31;25763;49.972;8.568;2022-12-18T16:19:22;-3.26;83.43
40059;SHT31;25763;49.972;8.568;2022-12-18T16:21:50;-3.25;83.48
40059;SHT31;25763;49.972;8.568;2022-12-18T16:24:23;-3.35;83.78
40059;SHT31;25763;49.972;8.568;2022-12-18T16:26:50;-3.32;83.94
40059;SHT31;25763;49.972;8.568;2022-12-18T16:29:17;-3.33;83.95
40059;SHT31;25763;49.972;8.568;2022-12-18T16:31:43;-3.35;83.92
40059;SHT31;25763;49.972;8.568;2022-12-18T16:34:22;-3.36;84.01
40059;SHT31;25763;49.972;8.568;2022-12-18T16:36:49;-3.32;83.91
40059;SHT31;25763;49.972;8.568;2022-12-18T16:39:15;-3.28;83.88
40059;SHT31;25763;49.972;8.568;2022-12-18T16:41:41;-3.29;83.85
40059;SHT31;25763;49.972;8.568;2022-12-18T16:44:06;-3.13;83.68
40059;SHT31;25763;49.972;8.568;2022-12-18T16:46:32;-3.11;83.46
40059;SHT31;25763;49.972;8.568;2022-12-18T16:48:58;-3.07;83.31
40059;SHT31;25763;49.972;8.568;2022-12-18T16:51:24;-3.21;83.34
40059;SHT31;25763;49.972;8.568;2022-12-18T16:53:49;-3.26;83.67
40059;SHT31;25763;49.972;8.568;2022-12-18T16:56:14;-3.18;83.57
40059;SHT31;25763;49.972;8.568;2022-12-18T16:58:40;-3.09;83.41
40059;SHT31;25763;49.972;8.568;2022-12-18T17:01:11;-3.07;83.34
40059;SHT31;25763;49.972;8.568;2022-12-18T17:03:37;-3.04;83.30
40059;SHT31;25763;49.972;8.568;2022-12-18T17:06:06;-3.04;83.25
40059;SHT31;25763;49.972;8.568;2022-12-18T17:08:31;-3.05;83.17
40059;SHT31;25763;49.972;8.568;2022-12-18T17:11:04;-3.04;83.17
40059;SHT31;25763;49.972;8.568;2022-12-18T17:13:30;-3.04;83.11
40059;SHT31;25763;49.972;8.568;2022-12-18T17:16:01;-3.12;83.25
40059;SHT31;25763;49.972;8.568;2022-12-18T17:18:26;-3.09;83.39
40059;SHT31;25763;49.972;8.568;2022-12-18T17:20:52;-3.07;83.28
40059;SHT31;25763;49.972;8.568;2022-12-18T17:23:17;-3.16;83.53
40059;SHT31;25763;49.972;8.568;2022-12-18T17:25:42;-3.12;83.53
40059;SHT31;25763;49.972;8.568;2022-12-18T17:28:08;-3.07;83.43